Disclaimer

Please do not use the information listed here in-flight or in-navigation, as they are not provided to us by the airports but are provided by volunteers, so they might be outdated.

Search


Regions


Airport information page

Radio informations:
MF - 122.1 MHz
WINNIPEG RDO - 122.1 MHz
WINNIPEG CNTR - 132.2 MHz
MIN NATL RESOURC - 122.9 MHz

Airport informations:
Latitude: 49° 49' 54.00" N
Longitude: 092° 44' 39.00" W
Elevation: 1354 feet - 413 meters
Operating hours: N/A
Operating agency: Municipal
Timezone: Second Sunday in March at 0200 to first Sunday in November at 0200 local time (Exception Arizona and that portion of Indiana in the Eastern Time Zone)
Fuel: Jet B, Wide cut turbine fuel, Without icing inhibitor.

100/130 MIL Spec, low lead, aviation gasoline (BLUE)

Runway information:
05/23 - 2000 x 75 feet< - >610 x 23 meters
11/29 - 6000 x 150 feet< - >1829 x 46 meters

Recent METARs:
CYHD 181406Z AUTO 28005KT 6SM -SN OVC032 M12/M14 A2998 RMK SLP190
CYHD 181406Z AUTO 28005KT 6SM -SN OVC032 M12/M14 A2998 RMK SLP190
CYHD 181406Z AUTO 28005KT 6SM -SN OVC032 M12/M14 A2998 RMK SLP190

Airport on the map: